Time;durP1;ratioP1;P1;durP2;ratioP2;P2;SDS_P1;SDS_P2;PMS_P1;PMS_P2;Temp;Humidity;BMP_temperature;BMP_pressure;BME280_temperature;BME280_humidity;BME280_pressure;Samples;Min_cycle;Max_cycle;Signal;HPM_P1;HPM_P2
2021/07/24 00:01:13;;;;;;;;;;;;;;;16.63;74.35;101316.28;5065075;28;20307;-48
2021/07/24 00:03:40;;;;;;;;;;;;;;;16.62;74.49;101311.94;5065130;28;19928;-51
2021/07/24 00:06:07;;;;;;;;;;;;;;;16.54;74.87;101306.44;5067802;28;19936;-52
2021/07/24 00:08:34;;;;;;;;;;;;;;;16.44;75.31;101298.38;5052749;28;19932;-52
2021/07/24 00:11:01;;;;;;;;;;;;;;;16.52;74.77;101300.41;5052933;28;20027;-55
2021/07/24 00:13:28;;;;;;;;;;;;;;;16.36;75.70;101295.50;5052521;28;20015;-52
2021/07/24 00:15:54;;;;;;;;;;;;;;;16.34;75.66;101295.63;5051426;28;19952;-54
2021/07/24 00:18:21;;;;;;;;;;;;;;;16.31;75.82;101287.94;5051338;28;19921;-53
2021/07/24 00:20:48;;;;;;;;;;;;;;;16.28;75.84;101282.91;5052436;28;19921;-50
2021/07/24 00:23:14;;;;;;;;;;;;;;;16.14;76.52;101284.03;5065587;28;19968;-54
2021/07/24 00:25:41;;;;;;;;;;;;;;;16.20;76.35;101278.22;5050160;28;19921;-51
2021/07/24 00:28:08;;;;;;;;;;;;;;;16.17;76.15;101273.16;5051479;28;20295;-48
2021/07/24 00:30:38;;;;;;;;;;;;;;;16.11;76.67;101273.66;5052105;28;19927;-52
2021/07/24 00:33:05;;;;;;;;;;;;;;;16.00;76.89;101271.88;5049587;28;19966;-53
2021/07/24 00:35:32;;;;;;;;;;;;;;;16.07;76.43;101274.88;5048213;28;19920;-54
2021/07/24 00:37:59;;;;;;;;;;;;;;;16.03;77.16;101266.34;5052131;28;19986;-52
2021/07/24 00:40:26;;;;;;;;;;;;;;;16.03;76.59;101261.03;5051937;28;20318;-56
2021/07/24 00:42:53;;;;;;;;;;;;;;;16.01;77.14;101249.69;5049121;28;19928;-51
2021/07/24 00:45:20;;;;;;;;;;;;;;;15.97;77.33;101258.88;5049423;28;20031;-49
2021/07/24 00:47:48;;;;;;;;;;;;;;;15.94;77.42;101263.56;5049546;28;19974;-50
2021/07/24 00:50:15;;;;;;;;;;;;;;;15.94;77.24;101260.91;5051780;28;19927;-51
2021/07/24 00:52:43;;;;;;;;;;;;;;;15.97;76.99;101260.69;5067152;28;19990;-48
2021/07/24 00:55:10;;;;;;;;;;;;;;;15.99;77.68;101267.56;5051950;28;20383;-47
2021/07/24 00:57:38;;;;;;;;;;;;;;;15.96;77.35;101270.44;5067611;28;19920;-52
2021/07/24 01:00:05;;;;;;;;;;;;;;;15.97;77.77;101266.81;5067697;28;19921;-50
2021/07/24 01:02:31;;;;;;;;;;;;;;;15.95;77.57;101270.56;5051766;28;19921;-47
2021/07/24 01:04:59;;;;;;;;;;;;;;;15.93;77.36;101268.03;5052187;28;19986;-48
2021/07/24 01:07:26;;;;;;;;;;;;;;;15.93;77.43;101265.41;5051220;28;20343;-50
2021/07/24 01:09:52;;;;;;;;;;;;;;;15.99;77.45;101264.91;5049341;28;19931;-52
2021/07/24 01:12:19;;;;;;;;;;;;;;;15.94;77.86;101261.78;5051000;28;19921;-52
2021/07/24 01:14:46;;;;;;;;;;;;;;;15.89;77.97;101254.19;5055727;28;19921;-52
2021/07/24 01:17:12;;;;;;;;;;;;;;;15.76;78.90;101247.31;5055898;28;19920;-51
2021/07/24 01:19:39;;;;;;;;;;;;;;;15.79;78.86;101247.06;5055004;28;19929;-48
2021/07/24 01:22:06;;;;;;;;;;;;;;;15.74;78.73;101244.78;5055960;28;19921;-49
2021/07/24 01:24:32;;;;;;;;;;;;;;;15.74;79.00;101244.78;5054700;28;20442;-51
2021/07/24 01:26:59;;;;;;;;;;;;;;;15.62;79.43;101235.19;5051314;28;19924;-51
2021/07/24 01:29:25;;;;;;;;;;;;;;;15.63;78.98;101227.09;5053883;28;20415;-50
2021/07/24 01:31:54;;;;;;;;;;;;;;;15.61;79.17;101222.88;5055688;28;19931;-50
2021/07/24 01:34:21;;;;;;;;;;;;;;;15.60;79.38;101223.84;5055376;28;20503;-50
2021/07/24 01:36:48;;;;;;;;;;;;;;;15.62;79.63;101219.28;5052899;28;19921;-50
2021/07/24 01:39:14;;;;;;;;;;;;;;;15.51;80.03;101220.13;5054380;28;19921;-47
2021/07/24 01:41:44;;;;;;;;;;;;;;;15.57;79.43;101211.72;5055911;28;20363;-51
2021/07/24 01:44:12;;;;;;;;;;;;;;;15.54;79.80;101212.78;5055360;28;19927;-54
2021/07/24 01:46:38;;;;;;;;;;;;;;;15.47;80.40;101210.75;5054172;28;19920;-53
2021/07/24 01:49:11;;;;;;;;;;;;;;;15.47;80.24;101208.09;5070711;28;19982;-54
2021/07/24 01:54:56;;;;;;;;;;;;;;;15.47;79.97;101184.25;5037588;28;19928;-53
2021/07/24 01:57:23;;;;;;;;;;;;;;;15.40;79.97;101181.25;5054025;28;20557;-52
2021/07/24 01:59:50;;;;;;;;;;;;;;;15.38;80.28;101186.66;5070704;28;19928;-52
2021/07/24 02:02:17;;;;;;;;;;;;;;;15.44;80.35;101187.16;5052673;28;19920;-53
2021/07/24 02:04:46;;;;;;;;;;;;;;;15.40;80.92;101189.19;5067185;28;20294;-48
2021/07/24 02:07:12;;;;;;;;;;;;;;;15.41;80.27;101182.94;5055082;28;19928;-50
2021/07/24 02:09:39;;;;;;;;;;;;;;;15.30;81.17;101185.59;5070540;28;19975;-49
2021/07/24 02:12:06;;;;;;;;;;;;;;;15.29;81.08;101176.78;5053835;28;19920;-55
2021/07/24 02:14:35;;;;;;;;;;;;;;;15.30;81.15;101189.09;5054978;28;20295;-52
2021/07/24 02:17:02;;;;;;;;;;;;;;;15.34;81.23;101189.69;5053637;28;19921;-48
2021/07/24 02:19:30;;;;;;;;;;;;;;;15.33;81.02;101196.78;5052469;28;19921;-49
2021/07/24 02:21:56;;;;;;;;;;;;;;;15.23;81.70;101197.63;5067661;28;20375;-50
2021/07/24 02:24:23;;;;;;;;;;;;;;;15.28;81.13;101201.59;5054281;28;19927;-47
2021/07/24 02:26:50;;;;;;;;;;;;;;;15.31;81.29;101204.03;5054836;28;19924;-48
2021/07/24 02:29:16;;;;;;;;;;;;;;;15.28;81.60;101196.31;5054830;28;20326;-49
2021/07/24 02:31:44;;;;;;;;;;;;;;;15.30;81.63;101193.56;5054891;28;19924;-48
2021/07/24 02:34:10;;;;;;;;;;;;;;;15.31;81.35;101185.47;5070183;28;19928;-49
2021/07/24 02:36:37;;;;;;;;;;;;;;;15.24;82.05;101181.63;5054489;28;19966;-46
2021/07/24 02:39:03;;;;;;;;;;;;;;;15.27;81.94;101180.53;5054527;28;20379;-48
2021/07/24 02:41:30;;;;;;;;;;;;;;;15.23;82.36;101173.78;5054544;28;19924;-54
2021/07/24 02:43:57;;;;;;;;;;;;;;;15.22;81.90;101167.66;5054302;28;19920;-47
2021/07/24 02:46:23;;;;;;;;;;;;;;;15.12;82.42;101158.75;5054503;28;19951;-51
2021/07/24 02:48:50;;;;;;;;;;;;;;;15.13;82.41;101150.69;5069744;28;20696;-50
2021/07/24 02:51:17;;;;;;;;;;;;;;;15.21;82.41;101155.38;5051666;28;19929;-53
2021/07/24 02:53:43;;;;;;;;;;;;;;;15.12;82.85;101154.31;5052014;28;19951;-50
2021/07/24 02:56:10;;;;;;;;;;;;;;;15.06;83.01;101159.25;5053127;28;19966;-51
2021/07/24 02:58:37;;;;;;;;;;;;;;;15.04;83.09;101151.44;5054009;28;19921;-48
2021/07/24 03:01:07;;;;;;;;;;;;;;;15.05;82.78;101142.50;5054163;28;19920;-53
2021/07/24 03:03:35;;;;;;;;;;;;;;;14.94;83.28;101135.41;5052101;28;19921;-48
2021/07/24 03:06:02;;;;;;;;;;;;;;;15.00;83.35;101134.09;5049790;28;19967;-47
2021/07/24 03:08:28;;;;;;;;;;;;;;;14.91;83.39;101129.53;5066883;28;19927;-49
2021/07/24 03:10:55;;;;;;;;;;;;;;;15.02;83.08;101121.56;5053832;28;19921;-53
2021/07/24 03:13:22;;;;;;;;;;;;;;;14.96;83.06;101124.72;5054045;28;19925;-52
2021/07/24 03:15:48;;;;;;;;;;;;;;;14.95;83.33;101129.16;5052496;28;19925;-53
2021/07/24 03:18:15;;;;;;;;;;;;;;;14.94;83.62;101132.75;5053690;28;20288;-52
2021/07/24 03:20:42;;;;;;;;;;;;;;;14.83;83.92;101124.81;5053763;28;19920;-52
2021/07/24 03:23:08;;;;;;;;;;;;;;;14.89;84.04;101124.34;5053556;28;20280;-52
2021/07/24 03:25:35;;;;;;;;;;;;;;;14.91;83.99;101129.53;5068924;28;19921;-48
2021/07/24 03:28:01;;;;;;;;;;;;;;;14.75;84.42;101121.94;5053790;28;19928;-48
2021/07/24 03:30:28;;;;;;;;;;;;;;;14.73;84.71;101113.28;5068997;28;19921;-48
2021/07/24 03:32:55;;;;;;;;;;;;;;;14.81;84.03;101105.59;5053710;28;19920;-46
2021/07/24 03:35:21;;;;;;;;;;;;;;;14.77;84.43;101107.63;5053084;28;19925;-49
2021/07/24 03:37:48;;;;;;;;;;;;;;;14.77;84.99;101107.63;5051862;28;19925;-50
2021/07/24 03:40:15;;;;;;;;;;;;;;;14.69;84.86;101110.88;5053431;28;19920;-53
2021/07/24 03:42:41;;;;;;;;;;;;;;;14.62;85.14;101119.38;5053397;28;20375;-54
2021/07/24 03:45:08;;;;;;;;;;;;;;;14.65;85.22;101114.72;5053233;28;19920;-52
2021/07/24 03:47:35;;;;;;;;;;;;;;;14.69;84.98;101117.97;5053294;28;19921;-53
2021/07/24 03:50:02;;;;;;;;;;;;;;;14.65;85.31;101113.88;5051927;28;19921;-53
2021/07/24 03:52:28;;;;;;;;;;;;;;;14.62;85.53;101104.34;5053344;28;19921;-52
2021/07/24 03:54:56;;;;;;;;;;;;;;;14.61;85.67;101113.22;5053213;28;19966;-50
2021/07/24 03:57:23;;;;;;;;;;;;;;;14.60;85.91;101111.56;5053076;28;20554;-50
2021/07/24 03:59:49;;;;;;;;;;;;;;;14.56;86.24;101110.13;5050663;28;20398;-48
2021/07/24 04:02:23;;;;;;;;;;;;;;;14.51;86.94;101107.00;5049130;28;19986;-53
2021/07/24 04:04:52;;;;;;;;;;;;;;;14.53;86.37;101097.13;5051781;28;20356;-51
2021/07/24 04:07:22;;;;;;;;;;;;;;;14.56;86.76;101099.53;5052834;28;20012;-53
2021/07/24 04:09:49;;;;;;;;;;;;;;;14.57;86.24;101089.78;5051779;28;20383;-48
2021/07/24 04:12:16;;;;;;;;;;;;;;;14.58;86.35;101081.72;5068178;28;19921;-51
2021/07/24 04:14:45;;;;;;;;;;;;;;;14.60;86.70;101063.06;5052856;28;19924;-49
2021/07/24 04:17:11;;;;;;;;;;;;;;;14.51;86.59;101059.34;5052674;28;19931;-52
2021/07/24 04:19:38;;;;;;;;;;;;;;;14.55;86.38;101055.50;5052822;28;19924;-54
2021/07/24 04:22:04;;;;;;;;;;;;;;;14.53;86.70;101054.78;5052624;28;19921;-48
2021/07/24 04:24:31;;;;;;;;;;;;;;;14.57;86.87;101058.88;5052577;28;19920;-50
2021/07/24 04:26:58;;;;;;;;;;;;;;;14.59;86.52;101067.53;5050105;28;20302;-52
2021/07/24 04:29:25;;;;;;;;;;;;;;;14.53;86.79;101070.66;5048972;28;20369;-52
2021/07/24 04:31:53;;;;;;;;;;;;;;;14.60;86.61;101074.53;5052009;28;20387;-50
2021/07/24 04:34:20;;;;;;;;;;;;;;;14.68;86.25;101090.69;5051818;28;19924;-50
2021/07/24 04:36:46;;;;;;;;;;;;;;;14.72;86.42;101103.66;5052332;28;19951;-53
2021/07/24 04:39:13;;;;;;;;;;;;;;;14.77;86.05;101096.22;5052490;28;19927;-49
2021/07/24 04:41:41;;;;;;;;;;;;;;;14.90;86.30;101102.19;5052928;28;19920;-51
2021/07/24 04:44:07;;;;;;;;;;;;;;;14.90;85.91;101098.72;5052408;28;19921;-52
2021/07/24 04:46:37;;;;;;;;;;;;;;;14.94;85.20;101111.56;5052693;28;19921;-52
2021/07/24 04:49:04;;;;;;;;;;;;;;;14.99;85.52;101101.47;5072097;28;19921;-49
2021/07/24 04:51:30;;;;;;;;;;;;;;;15.02;85.20;101103.03;5071962;28;19920;-54
2021/07/24 04:53:57;;;;;;;;;;;;;;;15.03;84.81;101110.00;5056601;28;19966;-53
2021/07/24 04:56:26;;;;;;;;;;;;;;;15.03;84.87;101104.72;5056857;28;19921;-47
2021/07/24 04:58:53;;;;;;;;;;;;;;;15.01;84.75;101098.69;5055366;28;20273;-50
2021/07/24 05:01:20;;;;;;;;;;;;;;;15.01;85.30;101102.19;5056451;28;19928;-53
2021/07/24 05:03:47;;;;;;;;;;;;;;;15.09;85.09;101087.47;5069182;28;19971;-53
2021/07/24 05:06:14;;;;;;;;;;;;;;;15.16;84.77;101068.34;5053259;28;19920;-53
2021/07/24 05:08:40;;;;;;;;;;;;;;;15.18;84.43;101058.44;5056054;28;19990;-55
2021/07/24 05:11:07;;;;;;;;;;;;;;;15.24;84.27;101057.09;5056392;28;19920;-49
2021/07/24 05:13:34;;;;;;;;;;;;;;;15.22;84.52;101051.09;5071666;28;19986;-49
2021/07/24 05:16:01;;;;;;;;;;;;;;;15.29;84.42;101040.84;5054942;28;19951;-53
2021/07/24 05:18:27;;;;;;;;;;;;;;;15.30;83.99;101032.75;5071364;28;19971;-53
2021/07/24 05:20:54;;;;;;;;;;;;;;;15.34;84.04;101047.44;5054938;28;19921;-53
2021/07/24 05:23:21;;;;;;;;;;;;;;;15.38;83.67;101046.22;5055854;28;20346;-54
2021/07/24 05:25:47;;;;;;;;;;;;;;;15.44;83.63;101046.69;5056051;28;19921;-48
2021/07/24 05:28:14;;;;;;;;;;;;;;;15.53;83.38;101046.75;5056190;28;19920;-50
2021/07/24 05:30:40;;;;;;;;;;;;;;;15.63;82.83;101049.47;5054712;28;20279;-55
2021/07/24 05:33:07;;;;;;;;;;;;;;;15.61;82.63;101048.78;5050447;28;19931;-49
2021/07/24 05:35:34;;;;;;;;;;;;;;;15.68;82.49;101044.66;5054388;28;19921;-53
2021/07/24 05:38:01;;;;;;;;;;;;;;;15.65;82.11;101044.91;5055527;28;20292;-46
2021/07/24 05:40:27;;;;;;;;;;;;;;;15.72;82.03;101054.03;5052974;28;19920;-50
2021/07/24 05:42:58;;;;;;;;;;;;;;;15.78;81.59;101054.47;5053715;28;19931;-51
2021/07/24 05:45:24;;;;;;;;;;;;;;;15.84;81.46;101051.34;5052904;28;19928;-52
2021/07/24 05:47:51;;;;;;;;;;;;;;;15.94;80.81;101059.34;5050730;28;19921;-51
2021/07/24 05:50:17;;;;;;;;;;;;;;;15.99;80.62;101057.16;5054901;28;19920;-49
2021/07/24 05:52:44;;;;;;;;;;;;;;;16.07;79.97;101051.22;5055330;28;20015;-51
2021/07/24 05:55:11;;;;;;;;;;;;;;;16.12;80.35;101052.50;5052431;28;19927;-53
2021/07/24 05:57:38;;;;;;;;;;;;;;;16.24;79.96;101050.59;5053813;28;19963;-54
2021/07/24 06:00:08;;;;;;;;;;;;;;;16.27;79.95;101063.59;5054376;28;19921;-54
2021/07/24 06:02:35;;;;;;;;;;;;;;;16.42;79.25;101055.31;5054726;28;19943;-53
2021/07/24 06:05:02;;;;;;;;;;;;;;;16.41;78.63;101050.97;5054611;28;19928;-49
2021/07/24 06:07:30;;;;;;;;;;;;;;;16.39;79.09;101049.28;5054697;28;19974;-53
2021/07/24 06:09:56;;;;;;;;;;;;;;;16.45;78.37;101037.28;5053945;28;19920;-51
2021/07/24 06:12:23;;;;;;;;;;;;;;;16.59;78.81;101038.72;5055173;28;19920;-53
2021/07/24 06:14:50;;;;;;;;;;;;;;;16.73;78.25;101041.00;5070476;28;19920;-51
2021/07/24 06:17:16;;;;;;;;;;;;;;;16.72;77.62;101031.38;5070088;28;19921;-53
2021/07/24 06:19:44;;;;;;;;;;;;;;;16.79;77.94;101030.84;5067507;28;19933;-50
2021/07/24 06:22:10;;;;;;;;;;;;;;;16.90;77.50;101028.09;5052776;28;19921;-49
2021/07/24 06:24:37;;;;;;;;;;;;;;;16.89;77.58;101034.38;5054700;28;19966;-54
2021/07/24 06:27:04;;;;;;;;;;;;;;;16.97;77.18;101029.22;5052750;28;19925;-52
2021/07/24 06:29:30;;;;;;;;;;;;;;;17.04;77.14;101030.34;5051964;28;20326;-53
2021/07/24 06:32:01;;;;;;;;;;;;;;;17.17;76.96;101021.28;5054304;28;20394;-53
2021/07/24 06:34:28;;;;;;;;;;;;;;;17.24;76.65;101027.72;5053434;28;20327;-52
2021/07/24 06:36:54;;;;;;;;;;;;;;;17.36;75.96;101034.56;5068768;28;19966;-55
2021/07/24 06:39:21;;;;;;;;;;;;;;;17.50;75.99;101027.97;5050359;28;20334;-56
2021/07/24 06:41:48;;;;;;;;;;;;;;;17.63;75.27;101025.06;5053391;28;19928;-53
2021/07/24 06:44:15;;;;;;;;;;;;;;;17.76;75.25;101024.75;5053799;28;20011;-55
2021/07/24 06:46:41;;;;;;;;;;;;;;;17.86;74.55;101022.91;5052596;28;20387;-54
2021/07/24 06:49:08;;;;;;;;;;;;;;;17.88;73.76;101022.78;5053833;28;19932;-53
2021/07/24 06:51:35;;;;;;;;;;;;;;;17.97;74.08;101016.63;5053062;28;20023;-55
2021/07/24 06:54:01;;;;;;;;;;;;;;;18.10;74.21;101010.13;5051154;28;19975;-53
2021/07/24 06:56:28;;;;;;;;;;;;;;;18.14;73.57;100999.03;5051707;28;19920;-56
2021/07/24 06:58:54;;;;;;;;;;;;;;;18.18;73.91;100994.28;5054130;28;19924;-55
2021/07/24 07:01:21;;;;;;;;;;;;;;;18.26;74.01;100988.25;5054266;28;19974;-55
2021/07/24 07:03:48;;;;;;;;;;;;;;;18.32;72.78;100988.47;5053985;28;19928;-55
2021/07/24 07:06:15;;;;;;;;;;;;;;;18.36;72.83;100989.00;5053707;28;19920;-54
2021/07/24 07:08:41;;;;;;;;;;;;;;;18.39;73.01;100986.06;5053861;28;20330;-53
2021/07/24 07:11:08;;;;;;;;;;;;;;;18.47;72.94;100974.66;5052480;28;20268;-55
2021/07/24 07:13:35;;;;;;;;;;;;;;;18.53;72.20;100971.44;5053820;28;20158;-55
2021/07/24 07:16:06;;;;;;;;;;;;;;;18.58;72.94;100974.47;5053879;28;19954;-53
2021/07/24 07:18:34;;;;;;;;;;;;;;;18.61;72.76;100966.19;5053404;28;19926;-53
2021/07/24 07:21:01;;;;;;;;;;;;;;;18.57;72.72;100970.13;5068850;28;19927;-51
2021/07/24 07:23:27;;;;;;;;;;;;;;;18.60;72.62;100975.16;5069195;28;20562;-54
2021/07/24 07:25:54;;;;;;;;;;;;;;;18.75;72.41;100971.00;5053763;28;20046;-53
2021/07/24 07:28:20;;;;;;;;;;;;;;;18.78;72.58;100972.50;5068884;28;19921;-48
2021/07/24 07:30:47;;;;;;;;;;;;;;;18.78;72.46;100971.69;5053348;28;20372;-51
2021/07/24 07:33:15;;;;;;;;;;;;;;;18.81;72.29;100974.88;5053528;28;19925;-54
2021/07/24 07:35:42;;;;;;;;;;;;;;;18.92;71.27;100973.84;5053567;28;19921;-51
2021/07/24 07:38:08;;;;;;;;;;;;;;;19.07;70.67;100976.81;5052502;28;19970;-53
2021/07/24 07:40:36;;;;;;;;;;;;;;;19.14;70.39;100969.06;5053501;28;19921;-51
2021/07/24 07:43:04;;;;;;;;;;;;;;;19.04;70.83;100966.47;5053282;28;19928;-47
2021/07/24 07:45:31;;;;;;;;;;;;;;;19.23;70.61;100962.81;5053352;28;19928;-49
2021/07/24 07:47:58;;;;;;;;;;;;;;;19.28;70.43;100963.19;5053339;28;20429;-55
2021/07/24 07:50:25;;;;;;;;;;;;;;;19.39;70.29;100943.44;5052852;28;19925;-56
2021/07/24 07:52:51;;;;;;;;;;;;;;;19.51;70.04;100952.88;5053031;28;20349;-55
2021/07/24 07:55:18;;;;;;;;;;;;;;;19.61;69.77;100939.44;5052752;28;20437;-55
2021/07/24 07:57:45;;;;;;;;;;;;;;;19.75;70.20;100940.66;5052490;28;20291;-53
2021/07/24 08:00:12;;;;;;;;;;;;;;;19.80;68.65;100930.41;5052897;28;19971;-56
2021/07/24 08:02:38;;;;;;;;;;;;;;;19.89;69.03;100931.28;5053152;28;19975;-56
2021/07/24 08:05:05;;;;;;;;;;;;;;;20.03;68.50;100917.34;5052933;28;19921;-55
2021/07/24 08:07:32;;;;;;;;;;;;;;;20.19;68.38;100913.91;5053003;28;19924;-55
2021/07/24 08:09:59;;;;;;;;;;;;;;;20.31;67.80;100910.94;5049961;28;19924;-53
2021/07/24 08:12:26;;;;;;;;;;;;;;;20.46;66.85;100908.47;5050024;28;19974;-55
2021/07/24 08:14:57;;;;;;;;;;;;;;;20.61;66.83;100904.16;5051679;28;20379;-50
2021/07/24 08:17:24;;;;;;;;;;;;;;;20.73;66.39;100908.19;5067924;28;19921;-51
2021/07/24 08:19:51;;;;;;;;;;;;;;;20.94;65.80;100891.69;5052816;28;19960;-51
2021/07/24 08:22:17;;;;;;;;;;;;;;;21.08;64.75;100876.81;5051596;28;19990;-55
2021/07/24 08:24:44;;;;;;;;;;;;;;;21.37;63.75;100867.41;5052232;28;19958;-52
2021/07/24 08:27:10;;;;;;;;;;;;;;;21.40;64.14;100877.75;5049272;28;20334;-51
2021/07/24 08:29:37;;;;;;;;;;;;;;;21.67;63.84;100873.06;5066168;28;19927;-53
2021/07/24 08:32:07;;;;;;;;;;;;;;;21.76;62.36;100872.03;5052526;28;19928;-55
2021/07/24 08:34:34;;;;;;;;;;;;;;;21.97;62.48;100873.28;5052670;28;20334;-55
2021/07/24 08:37:02;;;;;;;;;;;;;;;22.18;61.05;100879.88;5052521;28;20016;-55
2021/07/24 08:39:28;;;;;;;;;;;;;;;22.11;61.40;100883.25;5049095;28;19925;-54
2021/07/24 08:41:55;;;;;;;;;;;;;;;22.31;60.86;100882.00;5049931;28;20399;-52
2021/07/24 08:44:21;;;;;;;;;;;;;;;22.45;59.96;100879.41;5051247;28;19920;-53
2021/07/24 08:46:48;;;;;;;;;;;;;;;22.69;59.66;100880.25;5047580;28;19924;-52
2021/07/24 08:49:15;;;;;;;;;;;;;;;22.98;58.18;100876.00;5049279;28;19920;-53
2021/07/24 08:51:41;;;;;;;;;;;;;;;23.05;59.08;100870.75;5052098;28;19986;-54
2021/07/24 08:54:09;;;;;;;;;;;;;;;23.17;58.22;100861.28;5052326;28;19921;-52
2021/07/24 08:56:44;;;;;;;;;;;;;;;23.22;57.85;100866.94;5051001;28;19975;-55
2021/07/24 08:59:11;;;;;;;;;;;;;;;23.50;58.67;100862.78;5066864;28;19921;-55
2021/07/24 09:01:39;;;;;;;;;;;;;;;23.59;57.70;100869.72;5052340;28;20304;-54
2021/07/24 09:04:06;;;;;;;;;;;;;;;23.79;56.42;100872.66;5067633;28;19921;-54
2021/07/24 09:06:33;;;;;;;;;;;;;;;23.88;55.68;100866.22;5052289;28;19925;-54
2021/07/24 09:09:00;;;;;;;;;;;;;;;24.16;55.58;100854.78;5051215;28;19956;-49
2021/07/24 09:11:26;;;;;;;;;;;;;;;24.28;55.73;100863.16;5050934;28;20326;-49
2021/07/24 09:13:53;;;;;;;;;;;;;;;24.64;54.62;100856.94;5052302;28;19952;-53
2021/07/24 09:16:20;;;;;;;;;;;;;;;24.82;53.88;100847.59;5063988;28;19924;-51
2021/07/24 09:18:46;;;;;;;;;;;;;;;24.97;53.54;100859.09;5048815;28;19924;-55
2021/07/24 09:21:14;;;;;;;;;;;;;;;25.01;52.86;100849.59;5051132;28;19921;-52
2021/07/24 09:23:41;;;;;;;;;;;;;;;24.90;53.48;100842.06;5052323;28;20288;-56
2021/07/24 09:26:07;;;;;;;;;;;;;;;24.98;53.65;100840.06;5052183;28;19925;-55
2021/07/24 09:28:34;;;;;;;;;;;;;;;25.11;51.93;100850.09;5067632;28;19928;-56
2021/07/24 09:31:21;;;;;;;;;;;;;;;24.98;52.94;100847.31;5052156;28;20462;-56
2021/07/24 09:33:49;;;;;;;;;;;;;;;24.93;52.63;100831.75;5049305;28;20338;-56
2021/07/24 09:36:29;;;;;;;;;;;;;;;25.08;52.91;100834.34;5054037;28;19921;-56
2021/07/24 09:39:00;;;;;;;;;;;;;;;25.14;53.33;100836.25;5055637;28;19921;-55
2021/07/24 09:41:26;;;;;;;;;;;;;;;24.80;53.41;100837.84;5054177;28;19920;-56
2021/07/24 09:43:53;;;;;;;;;;;;;;;24.80;53.98;100828.94;5055224;28;19967;-56
2021/07/24 09:46:21;;;;;;;;;;;;;;;24.88;53.31;100827.97;5053427;28;19975;-53
2021/07/24 09:48:52;;;;;;;;;;;;;;;24.90;53.75;100850.16;5067572;28;19920;-55
2021/07/24 09:51:31;;;;;;;;;;;;;;;24.88;53.46;100852.19;5054027;28;19924;-55
2021/07/24 09:53:58;;;;;;;;;;;;;;;25.08;53.32;100850.47;5055444;28;20020;-56
2021/07/24 09:56:51;;;;;;;;;;;;;;;24.91;53.79;100849.09;5070489;28;19921;-55
2021/07/24 09:59:19;;;;;;;;;;;;;;;24.96;53.22;100846.66;5051208;28;19921;-56
2021/07/24 10:01:52;;;;;;;;;;;;;;;24.94;54.08;100863.00;5067074;28;20022;-55
2021/07/24 10:04:32;;;;;;;;;;;;;;;25.16;54.07;100862.13;5050912;28;19921;-55
2021/07/24 10:07:05;;;;;;;;;;;;;;;24.94;53.75;100865.69;5055243;28;19974;-55
2021/07/24 10:09:33;;;;;;;;;;;;;;;25.06;53.14;100866.00;5061821;28;20279;-55
2021/07/24 10:12:00;;;;;;;;;;;;;;;24.83;53.33;100868.06;5075344;28;19921;-57
2021/07/24 10:14:27;;;;;;;;;;;;;;;24.80;53.88;100869.28;5071308;28;19924;-55
2021/07/24 10:16:54;;;;;;;;;;;;;;;24.74;53.35;100876.25;5050581;28;19920;-56
2021/07/24 10:19:22;;;;;;;;;;;;;;;24.78;53.65;100880.22;5054813;28;20086;-57
2021/07/24 10:21:48;;;;;;;;;;;;;;;24.87;52.98;100880.94;5054961;28;19974;-56
2021/07/24 10:24:15;;;;;;;;;;;;;;;24.77;54.07;100888.50;5055160;28;19920;-55
2021/07/24 10:26:46;;;;;;;;;;;;;;;24.79;54.18;100898.03;5054796;28;19920;-58
2021/07/24 10:29:15;;;;;;;;;;;;;;;24.77;54.29;100900.09;5060948;28;20273;-54
2021/07/24 10:31:52;;;;;;;;;;;;;;;24.57;55.15;100907.06;5044077;28;19929;-53
2021/07/24 10:34:23;;;;;;;;;;;;;;;24.93;54.33;100911.59;5072751;28;19927;-55
2021/07/24 10:36:50;;;;;;;;;;;;;;;24.91;54.67;100903.72;5070625;28;19978;-51
2021/07/24 10:39:16;;;;;;;;;;;;;;;24.91;54.27;100913.63;5053379;28;19927;-55
2021/07/24 10:41:43;;;;;;;;;;;;;;;24.88;54.95;100909.50;5062739;28;19920;-53
2021/07/24 10:44:10;;;;;;;;;;;;;;;24.97;55.28;100908.31;5073205;28;20442;-55
2021/07/24 10:46:40;;;;;;;;;;;;;;;24.85;54.28;100906.38;5073605;28;19938;-55
2021/07/24 10:49:07;;;;;;;;;;;;;;;24.76;55.05;100914.56;5056447;28;20106;-52
2021/07/24 10:51:53;;;;;;;;;;;;;;;24.66;54.61;100911.34;5054112;28;20012;-53
2021/07/24 10:54:22;;;;;;;;;;;;;;;24.75;54.59;100914.75;5073729;28;20387;-53
2021/07/24 10:56:49;;;;;;;;;;;;;;;24.92;54.38;100910.78;5063559;28;19921;-55
2021/07/24 10:59:25;;;;;;;;;;;;;;;24.90;53.95;100906.63;5070259;28;20379;-55
2021/07/24 11:01:57;;;;;;;;;;;;;;;24.96;54.20;100892.38;5068223;28;19924;-52
2021/07/24 11:04:36;;;;;;;;;;;;;;;24.94;54.08;100881.00;5063287;28;19924;-54
2021/07/24 11:07:12;;;;;;;;;;;;;;;25.02;54.30;100885.38;5071849;28;19921;-55
2021/07/24 11:09:38;;;;;;;;;;;;;;;25.02;54.82;100875.47;5070905;28;19966;-54
2021/07/24 11:12:06;;;;;;;;;;;;;;;24.98;53.96;100875.03;5072442;28;19924;-56
2021/07/24 11:14:42;;;;;;;;;;;;;;;25.00;54.43;100874.00;5070380;28;19927;-53
2021/07/24 11:17:11;;;;;;;;;;;;;;;25.07;53.75;100873.03;5073871;28;19928;-55
2021/07/24 11:19:39;;;;;;;;;;;;;;;25.04;54.38;100868.03;5054968;28;19924;-55
2021/07/24 11:22:09;;;;;;;;;;;;;;;25.10;54.83;100866.41;5049777;28;19931;-54
2021/07/24 11:24:35;;;;;;;;;;;;;;;25.03;55.02;100860.16;5069381;28;19990;-55
2021/07/24 11:27:02;;;;;;;;;;;;;;;25.04;55.14;100865.34;5072213;28;19937;-57
2021/07/24 11:29:29;;;;;;;;;;;;;;;25.12;55.32;100865.19;5054756;28;19924;-56
2021/07/24 11:31:57;;;;;;;;;;;;;;;25.15;56.05;100863.97;5047985;28;19927;-57
2021/07/24 11:34:24;;;;;;;;;;;;;;;25.06;56.06;100871.38;5063569;28;20600;-56
2021/07/24 11:36:51;;;;;;;;;;;;;;;25.17;55.26;100863.78;5053374;28;19943;-56
2021/07/24 11:39:28;;;;;;;;;;;;;;;24.94;56.05;100865.69;5066037;28;19920;-54
2021/07/24 11:41:54;;;;;;;;;;;;;;;24.84;56.71;100877.78;5070240;28;19970;-55
2021/07/24 11:44:28;;;;;;;;;;;;;;;24.89;56.78;100876.19;5055011;28;20331;-57
2021/07/24 11:46:58;;;;;;;;;;;;;;;24.96;56.89;100870.88;5054736;28;19974;-57
2021/07/24 11:49:25;;;;;;;;;;;;;;;25.10;56.77;100875.34;5056920;28;19966;-57
2021/07/24 11:51:52;;;;;;;;;;;;;;;25.13;56.31;100874.94;5050093;28;19931;-57
2021/07/24 11:54:34;;;;;;;;;;;;;;;25.19;57.18;100873.31;5064419;28;19920;-57
2021/07/24 11:57:02;;;;;;;;;;;;;;;25.24;56.21;100883.50;5071006;28;20294;-56
2021/07/24 11:59:29;;;;;;;;;;;;;;;25.28;55.53;100876.72;5058596;28;19947;-56
2021/07/24 12:01:56;;;;;;;;;;;;;;;25.12;56.16;100881.34;5050594;28;20318;-57
2021/07/24 12:04:23;;;;;;;;;;;;;;;25.01;57.27;100884.56;5062258;28;20015;-54
2021/07/24 12:06:56;;;;;;;;;;;;;;;25.03;56.22;100887.88;5071926;28;19951;-54
2021/07/24 12:09:22;;;;;;;;;;;;;;;25.03;55.99;100887.88;5058618;28;19920;-53
2021/07/24 12:11:59;;;;;;;;;;;;;;;25.20;56.51;100893.00;5053102;28;19921;-56
2021/07/24 12:14:26;;;;;;;;;;;;;;;25.06;55.57;100889.34;5071654;28;19928;-55
2021/07/24 12:17:06;;;;;;;;;;;;;;;25.01;56.07;100895.34;5047179;28;19965;-55
2021/07/24 12:19:36;;;;;;;;;;;;;;;24.93;56.61;100890.09;5064728;28;19969;-55
2021/07/24 12:22:19;;;;;;;;;;;;;;;24.93;55.66;100893.59;5067670;28;19920;-54
2021/07/24 12:24:46;;;;;;;;;;;;;;;24.89;56.13;100900.38;5053047;28;19921;-55
2021/07/24 12:27:17;;;;;;;;;;;;;;;24.90;56.09;100899.38;5050273;28;19999;-54
2021/07/24 12:29:47;;;;;;;;;;;;;;;24.90;56.50;100890.47;5032710;28;19967;-54
2021/07/24 12:32:14;;;;;;;;;;;;;;;24.92;57.06;100888.41;5050334;28;19924;-55
2021/07/24 12:34:42;;;;;;;;;;;;;;;25.07;56.82;100888.34;5052596;28;19920;-54
2021/07/24 12:37:08;;;;;;;;;;;;;;;24.91;56.75;100889.44;5051660;28;19921;-53
2021/07/24 12:39:38;;;;;;;;;;;;;;;24.94;57.93;100884.50;5052747;28;19920;-53
2021/07/24 12:42:08;;;;;;;;;;;;;;;24.94;57.08;100868.38;5052482;28;19936;-53